createdAt,value
2023-02-13T00:01:57.353Z,10.10
2023-02-13T00:04:24.223Z,10.40
2023-02-13T00:06:51.330Z,12.27
2023-02-13T00:09:18.134Z,10.13
2023-02-13T00:11:44.866Z,10.00
2023-02-13T00:14:11.713Z,10.68
2023-02-13T00:16:38.434Z,9.77
2023-02-13T00:19:05.220Z,10.33
2023-02-13T00:21:32.144Z,10.23
2023-02-13T00:23:58.881Z,10.57
2023-02-13T00:26:25.691Z,10.30
2023-02-13T00:28:53.606Z,10.98
2023-02-13T00:31:21.348Z,10.53
2023-02-13T00:33:48.268Z,11.03
2023-02-13T00:36:17.531Z,11.47
2023-02-13T00:38:44.756Z,10.25
2023-02-13T00:41:11.651Z,10.93
2023-02-13T00:43:38.689Z,9.30
2023-02-13T00:46:05.772Z,10.02
2023-02-13T00:48:33.663Z,10.53
2023-02-13T00:51:00.803Z,11.45
2023-02-13T00:53:27.557Z,11.05
2023-02-13T00:55:54.609Z,11.25
2023-02-13T00:58:21.602Z,10.27
2023-02-13T01:00:48.593Z,12.00
2023-02-13T01:03:16.051Z,10.70
2023-02-13T01:05:43.583Z,11.43
2023-02-13T01:08:10.912Z,11.63
2023-02-13T01:10:38.651Z,10.18
2023-02-13T01:13:05.585Z,12.35
2023-02-13T01:15:32.819Z,11.67
2023-02-13T01:18:01.002Z,11.97
2023-02-13T01:20:28.409Z,12.20
2023-02-13T01:22:55.304Z,11.37
2023-02-13T01:25:22.323Z,12.17
2023-02-13T01:27:49.332Z,11.15
2023-02-13T01:30:16.791Z,11.80
2023-02-13T01:32:44.320Z,11.97
2023-02-13T01:35:11.583Z,11.67
2023-02-13T01:37:39.655Z,11.65
2023-02-13T01:40:07.852Z,13.73
2023-02-13T01:42:35.379Z,11.65
2023-02-13T01:45:19.431Z,13.03
2023-02-13T01:48:07.316Z,12.23
2023-02-13T01:50:36.924Z,12.43
2023-02-13T01:53:17.174Z,11.90
2023-02-13T01:55:56.439Z,11.88
2023-02-13T01:58:25.436Z,11.80
2023-02-13T02:00:52.256Z,12.48
2023-02-13T02:03:51.156Z,11.32
2023-02-13T02:06:21.880Z,11.40
2023-02-13T02:08:48.642Z,12.05
2023-02-13T02:11:27.199Z,11.93
2023-02-13T02:13:54.018Z,12.52
2023-02-13T02:16:20.835Z,11.85
2023-02-13T02:18:47.805Z,12.07
2023-02-13T02:21:39.568Z,10.70
2023-02-13T02:24:27.682Z,11.60
2023-02-13T02:26:57.072Z,10.85
2023-02-13T02:29:57.692Z,10.95
2023-02-13T02:32:36.176Z,12.60
2023-02-13T02:35:13.965Z,11.43
2023-02-13T02:37:53.517Z,12.27
2023-02-13T02:40:32.596Z,10.63
2023-02-13T02:43:30.656Z,11.65
2023-02-13T02:46:16.889Z,11.75
2023-02-13T02:49:05.107Z,11.68
2023-02-13T02:51:50.345Z,10.43
2023-02-13T02:54:45.862Z,12.32
2023-02-13T02:57:15.901Z,12.00
2023-02-13T03:00:01.020Z,13.65
2023-02-13T03:02:48.982Z,10.65
2023-02-13T03:05:40.823Z,10.90
2023-02-13T03:08:07.767Z,10.95
2023-02-13T03:10:54.620Z,10.82
2023-02-13T03:13:42.744Z,11.63
2023-02-13T03:16:35.722Z,11.45
2023-02-13T03:19:21.103Z,15.37
2023-02-13T03:22:15.121Z,16.63
2023-02-13T03:25:09.326Z,15.60
2023-02-13T03:28:25.256Z,14.17
2023-02-13T03:31:00.917Z,12.73
2023-02-13T03:33:36.855Z,13.53
2023-02-13T03:36:25.808Z,11.10
2023-02-13T03:39:07.405Z,11.23
2023-02-13T03:41:47.492Z,12.47
2023-02-13T03:44:31.767Z,11.03
2023-02-13T03:47:00.452Z,10.90
2023-02-13T03:49:50.251Z,11.50
2023-02-13T03:52:22.973Z,11.70
2023-02-13T03:55:17.504Z,11.20
2023-02-13T03:58:03.887Z,11.53
2023-02-13T04:00:36.013Z,11.70
2023-02-13T04:03:20.623Z,11.90
2023-02-13T04:05:49.752Z,10.60
2023-02-13T04:08:16.609Z,12.18
2023-02-13T04:10:58.423Z,10.95
2023-02-13T04:13:33.282Z,11.20
2023-02-13T04:16:11.850Z,12.10
2023-02-13T04:18:38.660Z,10.85
2023-02-13T04:21:06.356Z,12.23
2023-02-13T04:23:33.451Z,10.90
2023-02-13T04:26:02.580Z,11.03
2023-02-13T04:28:29.652Z,11.15
2023-02-13T04:30:57.873Z,10.98
2023-02-13T04:33:24.943Z,12.60
2023-02-13T04:35:51.796Z,11.00
2023-02-13T04:38:18.627Z,10.52
2023-02-13T04:40:45.470Z,10.90
2023-02-13T04:43:12.197Z,11.77
2023-02-13T04:45:38.965Z,11.30
2023-02-13T04:48:05.770Z,10.82
2023-02-13T04:50:32.505Z,10.63
2023-02-13T04:52:59.379Z,11.48
2023-02-13T04:55:26.971Z,10.35
2023-02-13T04:57:54.573Z,10.73
2023-02-13T05:00:22.567Z,10.70
2023-02-13T05:02:49.305Z,10.55
2023-02-13T05:05:16.374Z,13.70
2023-02-13T05:07:43.151Z,12.48
2023-02-13T05:10:10.918Z,10.25
2023-02-13T05:12:37.930Z,10.38
2023-02-13T05:15:05.871Z,10.05
2023-02-13T05:17:32.664Z,10.75
2023-02-13T05:20:00.232Z,11.10
2023-02-13T05:23:02.223Z,10.05
2023-02-13T05:25:29.120Z,9.85
2023-02-13T05:27:55.817Z,11.05
2023-02-13T05:30:22.582Z,10.55
2023-02-13T05:32:51.976Z,10.10
2023-02-13T05:35:19.440Z,10.57
2023-02-13T05:37:46.246Z,10.85
2023-02-13T05:40:13.670Z,10.43
2023-02-13T05:42:41.475Z,11.20
2023-02-13T05:45:08.835Z,10.57
2023-02-13T05:47:35.906Z,10.57
2023-02-13T05:50:02.699Z,10.02
2023-02-13T05:52:29.419Z,9.50
2023-02-13T05:54:56.379Z,10.05
2023-02-13T05:57:23.215Z,10.90
2023-02-13T05:59:49.979Z,11.32
2023-02-13T06:02:17.353Z,11.43
2023-02-13T06:04:44.563Z,11.10
2023-02-13T06:07:11.331Z,11.10
2023-02-13T06:09:38.158Z,11.50
2023-02-13T06:12:05.315Z,10.75
2023-02-13T06:14:32.134Z,10.45
2023-02-13T06:16:59.060Z,10.32
2023-02-13T06:19:25.825Z,11.40
2023-02-13T06:21:52.626Z,11.87
2023-02-13T06:24:19.507Z,11.03
2023-02-13T06:26:46.407Z,11.13
2023-02-13T06:29:13.142Z,11.55
2023-02-13T06:31:40.045Z,10.10
2023-02-13T06:34:06.880Z,10.10
2023-02-13T06:36:33.741Z,10.50
2023-02-13T06:39:00.751Z,12.60
2023-02-13T06:41:28.111Z,11.10
2023-02-13T06:43:55.191Z,11.38
2023-02-13T06:46:22.184Z,9.77
2023-02-13T06:48:49.102Z,10.73
2023-02-13T06:51:15.842Z,10.00
2023-02-13T06:53:42.732Z,10.33
2023-02-13T06:56:11.314Z,12.07
2023-02-13T06:58:40.158Z,10.87
2023-02-13T07:01:07.346Z,12.97
2023-02-13T07:03:34.251Z,10.47
2023-02-13T07:06:01.120Z,12.97
2023-02-13T07:08:28.271Z,11.97
2023-02-13T07:10:55.039Z,15.93
2023-02-13T07:13:21.898Z,12.17
2023-02-13T07:15:48.866Z,10.43
2023-02-13T07:18:15.617Z,10.63
2023-02-13T07:20:42.415Z,11.20
2023-02-13T07:23:09.378Z,11.33
2023-02-13T07:25:36.170Z,10.55
2023-02-13T07:28:03.937Z,10.67
2023-02-13T07:30:31.792Z,11.47
2023-02-13T07:33:00.700Z,10.60
2023-02-13T07:35:27.526Z,10.90
2023-02-13T07:37:55.454Z,11.57
2023-02-13T07:40:22.312Z,10.80
2023-02-13T07:42:49.091Z,10.33
2023-02-13T07:45:16.341Z,11.27
2023-02-13T07:47:43.315Z,10.57
2023-02-13T07:50:10.529Z,10.63
2023-02-13T07:52:38.226Z,10.53
2023-02-13T07:55:05.562Z,10.67
2023-02-13T07:57:32.323Z,12.00
2023-02-13T07:59:59.113Z,10.00
2023-02-13T08:02:25.877Z,13.30
2023-02-13T08:04:52.661Z,10.60
2023-02-13T08:07:19.911Z,12.20
2023-02-13T08:10:05.303Z,10.53
2023-02-13T08:12:32.630Z,10.90
2023-02-13T08:14:59.354Z,14.25
2023-02-13T08:17:26.146Z,10.00
2023-02-13T08:19:53.057Z,10.18
2023-02-13T08:22:19.763Z,13.87
2023-02-13T08:24:46.840Z,10.30
2023-02-13T08:27:14.180Z,10.07
2023-02-13T08:29:41.007Z,10.97
2023-02-13T08:32:08.190Z,9.15
2023-02-13T08:34:35.071Z,10.23
2023-02-13T08:37:02.952Z,10.50
2023-02-13T08:39:30.058Z,10.50
2023-02-13T08:41:56.930Z,10.35
2023-02-13T08:44:23.784Z,11.15
2023-02-13T08:46:50.770Z,11.02
2023-02-13T08:49:17.547Z,10.35
2023-02-13T08:51:44.450Z,12.55
2023-02-13T08:54:11.443Z,12.15
2023-02-13T08:56:38.158Z,12.02
2023-02-13T08:59:04.931Z,11.85
2023-02-13T09:01:31.826Z,11.32
2023-02-13T09:03:58.630Z,13.90
2023-02-13T09:06:28.598Z,14.05
2023-02-13T09:08:55.446Z,14.80
2023-02-13T09:11:23.683Z,11.85
2023-02-13T09:13:52.957Z,12.52
2023-02-13T09:16:19.994Z,11.32
2023-02-13T09:18:50.562Z,11.65
2023-02-13T09:21:17.670Z,11.73
2023-02-13T09:23:44.489Z,11.32
2023-02-13T09:26:12.775Z,11.95
2023-02-13T09:28:39.901Z,12.10
2023-02-13T09:31:11.961Z,10.65
2023-02-13T09:33:39.040Z,11.95
2023-02-13T09:36:07.341Z,11.57
2023-02-13T09:38:34.651Z,12.07
2023-02-13T09:41:11.229Z,9.80
2023-02-13T09:43:43.602Z,11.48
2023-02-13T09:46:14.163Z,12.27
2023-02-13T09:48:41.977Z,11.77
2023-02-13T09:51:10.474Z,11.15
2023-02-13T09:53:38.462Z,12.10
2023-02-13T09:56:15.000Z,11.02
2023-02-13T09:58:43.043Z,12.93
2023-02-13T10:01:34.544Z,13.50
2023-02-13T10:04:08.714Z,14.77
2023-02-13T10:06:50.150Z,12.45
2023-02-13T10:09:27.675Z,13.45
2023-02-13T10:12:19.440Z,12.18
2023-02-13T10:15:01.496Z,13.63
2023-02-13T10:17:40.021Z,13.02
2023-02-13T10:20:31.473Z,14.25
2023-02-13T10:23:25.932Z,13.23
2023-02-13T10:26:04.195Z,13.45
2023-02-13T10:28:32.934Z,13.55
2023-02-13T10:31:12.168Z,13.20
2023-02-13T10:33:44.352Z,12.40
2023-02-13T10:36:11.383Z,13.23
2023-02-13T10:38:42.339Z,13.88
2023-02-13T10:41:43.880Z,12.32
2023-02-13T10:44:40.079Z,13.73
2023-02-13T10:47:16.093Z,14.10
2023-02-13T10:50:15.947Z,17.40
2023-02-13T10:52:42.738Z,13.55
2023-02-13T10:55:33.700Z,12.77
2023-02-13T10:58:13.047Z,13.65
2023-02-13T11:01:04.620Z,14.23
2023-02-13T11:03:31.540Z,11.93
2023-02-13T11:05:58.853Z,12.25
2023-02-13T11:08:31.235Z,12.57
2023-02-13T11:10:58.103Z,12.98
2023-02-13T11:13:26.413Z,16.90
2023-02-13T11:16:10.446Z,13.95
2023-02-13T11:18:38.841Z,13.60
2023-02-13T11:21:07.927Z,13.02
2023-02-13T11:23:55.128Z,12.18
2023-02-13T11:26:22.663Z,16.73
2023-02-13T11:28:53.793Z,12.63
2023-02-13T11:31:30.128Z,13.10
2023-02-13T11:33:58.953Z,11.63
2023-02-13T11:36:30.845Z,14.40
2023-02-13T11:39:11.281Z,18.08
2023-02-13T11:41:41.416Z,13.70
2023-02-13T11:44:22.410Z,14.48
2023-02-13T11:46:50.862Z,13.13
2023-02-13T11:49:20.657Z,14.15
2023-02-13T11:51:48.440Z,13.70
2023-02-13T11:54:37.178Z,11.63
2023-02-13T11:57:42.826Z,14.73
2023-02-13T12:00:37.561Z,12.85
2023-02-13T12:03:28.692Z,13.38
2023-02-13T12:06:04.858Z,14.05
2023-02-13T12:08:33.270Z,14.05
2023-02-13T12:11:00.053Z,14.43
2023-02-13T12:13:39.065Z,13.18
2023-02-13T12:16:17.848Z,14.65
2023-02-13T12:18:46.697Z,13.23
2023-02-13T12:21:52.028Z,13.48
2023-02-13T12:24:52.951Z,13.65
2023-02-13T12:27:29.228Z,13.00
2023-02-13T12:30:08.150Z,13.60
2023-02-13T12:33:03.400Z,18.85
2023-02-13T12:35:39.375Z,14.50
2023-02-13T12:38:40.411Z,14.00
2023-02-13T12:41:19.873Z,12.52
2023-02-13T12:44:01.946Z,15.05
2023-02-13T12:46:35.064Z,13.77
2023-02-13T12:49:16.966Z,14.40
2023-02-13T12:52:02.172Z,12.38
2023-02-13T12:54:37.380Z,13.95
2023-02-13T12:57:34.968Z,15.85
2023-02-13T13:00:23.054Z,13.52
2023-02-13T13:03:22.100Z,11.83
2023-02-13T13:09:05.687Z,12.20
2023-02-13T13:11:47.410Z,13.38
2023-02-13T13:14:48.560Z,13.07
2023-02-13T13:17:42.831Z,13.32
2023-02-13T13:20:16.071Z,13.18
2023-02-13T13:22:48.231Z,16.55
2023-02-13T13:25:33.615Z,13.82
2023-02-13T13:28:07.902Z,12.23
2023-02-13T13:30:36.059Z,13.30
2023-02-13T13:33:24.447Z,13.02
2023-02-13T13:35:57.425Z,14.77
2023-02-13T13:38:52.244Z,11.20
2023-02-13T13:41:22.239Z,14.07
2023-02-13T13:44:00.044Z,12.95
2023-02-13T13:46:35.795Z,13.73
2023-02-13T13:49:24.520Z,13.25
2023-02-13T13:51:51.330Z,11.68
2023-02-13T13:54:19.728Z,15.13
2023-02-13T13:57:02.351Z,16.52
2023-02-13T13:59:38.408Z,17.00
2023-02-13T14:02:17.367Z,13.50
2023-02-13T14:05:02.878Z,13.18
2023-02-13T14:07:36.904Z,13.20
2023-02-13T14:10:04.392Z,14.90
2023-02-13T14:12:31.035Z,12.35
2023-02-13T14:14:58.667Z,12.88
2023-02-13T14:17:47.787Z,12.52
2023-02-13T14:20:40.898Z,13.40
2023-02-13T14:23:38.199Z,13.13
2023-02-13T14:26:12.529Z,12.88
2023-02-13T14:28:41.246Z,12.20
2023-02-13T14:31:15.231Z,11.75
2023-02-13T14:33:42.052Z,12.05
2023-02-13T14:36:21.408Z,12.02
2023-02-13T14:38:58.127Z,12.20
2023-02-13T14:41:44.161Z,15.25
2023-02-13T14:44:33.901Z,12.15
2023-02-13T14:47:02.102Z,14.13
2023-02-13T14:49:30.791Z,16.33
2023-02-13T14:51:59.377Z,14.73
2023-02-13T14:54:37.868Z,13.57
2023-02-13T14:57:14.743Z,13.30
2023-02-13T14:59:44.368Z,10.98
2023-02-13T15:07:17.704Z,14.63
2023-02-13T15:09:50.908Z,12.00
2023-02-13T15:12:32.080Z,13.77
2023-02-13T15:15:01.470Z,12.77
2023-02-13T15:17:30.737Z,14.40
2023-02-13T15:20:10.113Z,12.23
2023-02-13T15:22:38.604Z,13.90
2023-02-13T15:25:06.594Z,14.00
2023-02-13T15:27:37.605Z,14.85
2023-02-13T15:30:18.124Z,13.32
2023-02-13T15:32:45.031Z,13.25
2023-02-13T15:35:25.404Z,14.73
2023-02-13T15:37:52.735Z,12.25
2023-02-13T15:40:24.943Z,12.77
2023-02-13T15:42:51.833Z,12.93
2023-02-13T15:45:19.142Z,13.02
2023-02-13T15:47:46.551Z,12.32
2023-02-13T15:50:35.556Z,15.40
2023-02-13T15:53:06.073Z,11.88
2023-02-13T15:55:36.429Z,15.57
2023-02-13T15:58:03.178Z,13.63
2023-02-13T16:00:38.001Z,12.65
2023-02-13T16:03:06.702Z,13.73
2023-02-13T16:05:40.945Z,15.00
2023-02-13T16:08:26.706Z,12.23
2023-02-13T16:11:26.503Z,12.25
2023-02-13T16:14:04.461Z,13.32
2023-02-13T16:16:33.933Z,14.35
2023-02-13T16:19:00.766Z,14.18
2023-02-13T16:21:29.306Z,11.63
2023-02-13T16:24:00.477Z,12.15
2023-02-13T16:26:27.352Z,14.55
2023-02-13T16:28:55.882Z,12.07
2023-02-13T16:31:22.974Z,12.45
2023-02-13T16:33:49.755Z,11.63
2023-02-13T16:36:16.460Z,16.20
2023-02-13T16:38:47.574Z,14.45
2023-02-13T16:41:23.628Z,12.13
2023-02-13T16:44:22.834Z,12.32
2023-02-13T16:47:03.174Z,13.80
2023-02-13T16:49:34.379Z,11.77
2023-02-13T16:52:18.010Z,11.98
2023-02-13T16:54:44.727Z,11.20
2023-02-13T16:57:14.525Z,12.38
2023-02-13T16:59:47.410Z,13.10
2023-02-13T17:02:23.176Z,11.88
2023-02-13T17:05:08.496Z,12.63
2023-02-13T17:07:59.533Z,12.68
2023-02-13T17:10:35.913Z,13.32
2023-02-13T17:13:11.593Z,12.65
2023-02-13T17:15:41.518Z,14.50
2023-02-13T17:18:08.265Z,13.57
2023-02-13T17:20:35.172Z,14.00
2023-02-13T17:23:03.572Z,12.25
2023-02-13T17:25:35.235Z,12.60
2023-02-13T17:28:14.891Z,15.23
2023-02-13T17:33:14.901Z,13.18
2023-02-13T17:35:41.770Z,13.73
2023-02-13T17:38:09.897Z,12.23
2023-02-13T17:40:36.821Z,12.80
2023-02-13T17:43:03.881Z,12.15
2023-02-13T17:45:35.391Z,12.77
2023-02-13T17:48:02.170Z,13.27
2023-02-13T17:50:29.867Z,13.88
2023-02-13T17:52:56.691Z,11.60
2023-02-13T17:55:25.646Z,13.45
2023-02-13T17:57:53.475Z,12.13
2023-02-13T18:00:20.855Z,14.15
2023-02-13T18:02:48.242Z,12.25
2023-02-13T18:05:16.688Z,13.15
2023-02-13T18:07:43.843Z,13.25
2023-02-13T18:10:14.444Z,12.05
2023-02-13T18:12:42.610Z,12.90
2023-02-13T18:15:09.790Z,12.88
2023-02-13T18:17:36.788Z,12.30
2023-02-13T18:20:07.443Z,12.85
2023-02-13T18:22:34.176Z,11.15
2023-02-13T18:25:01.446Z,12.98
2023-02-13T18:27:28.760Z,11.90
2023-02-13T18:29:55.891Z,12.13
2023-02-13T18:32:23.015Z,15.30
2023-02-13T18:34:50.386Z,13.18
2023-02-13T18:37:18.188Z,12.73
2023-02-13T18:39:44.972Z,13.55
2023-02-13T18:42:13.427Z,13.55
2023-02-13T18:44:40.871Z,13.55
2023-02-13T18:47:08.294Z,17.50
2023-02-13T18:49:35.272Z,14.90
2023-02-13T18:52:02.505Z,15.75
2023-02-13T18:54:29.331Z,15.63
2023-02-13T18:56:56.279Z,17.67
2023-02-13T18:59:23.406Z,14.63
2023-02-13T19:01:50.582Z,14.98
2023-02-13T19:04:17.496Z,17.83
2023-02-13T19:06:44.298Z,16.80
2023-02-13T19:09:11.160Z,18.48
2023-02-13T19:11:38.971Z,13.50
2023-02-13T19:14:05.930Z,14.18
2023-02-13T19:16:33.715Z,15.32
2023-02-13T19:19:01.526Z,18.35
2023-02-13T19:21:29.584Z,20.77
2023-02-13T19:23:56.442Z,17.88
2023-02-13T19:26:24.759Z,17.70
2023-02-13T19:28:51.531Z,19.67
2023-02-13T19:31:20.285Z,18.60
2023-02-13T19:33:47.339Z,16.53
2023-02-13T19:36:16.311Z,17.27
2023-02-13T19:38:46.007Z,16.77
2023-02-13T19:41:17.316Z,15.88
2023-02-13T19:43:50.983Z,17.40
2023-02-13T19:46:22.849Z,14.90
2023-02-13T19:48:50.114Z,15.30
2023-02-13T19:51:18.357Z,17.58
2023-02-13T19:53:45.801Z,14.90
2023-02-13T19:56:12.985Z,16.38
2023-02-13T19:58:42.682Z,16.65
2023-02-13T20:01:10.572Z,15.35
2023-02-13T20:03:37.522Z,17.52
2023-02-13T20:06:10.167Z,16.25
2023-02-13T20:08:37.025Z,16.90
2023-02-13T20:11:04.137Z,17.02
2023-02-13T20:13:32.290Z,16.50
2023-02-13T20:15:59.294Z,18.38
2023-02-13T20:18:26.129Z,15.18
2023-02-13T20:20:52.976Z,15.43
2023-02-13T20:23:20.145Z,15.63
2023-02-13T20:25:46.996Z,15.10
2023-02-13T20:28:13.903Z,13.63
2023-02-13T20:30:43.819Z,15.23
2023-02-13T20:33:10.581Z,15.07
2023-02-13T20:35:37.497Z,18.67
2023-02-13T20:38:04.661Z,15.80
2023-02-13T20:40:31.566Z,19.70
2023-02-13T20:42:58.450Z,17.05
2023-02-13T20:45:25.258Z,17.02
2023-02-13T20:47:52.181Z,15.35
2023-02-13T20:50:19.154Z,15.10
2023-02-13T20:52:46.011Z,14.63
2023-02-13T20:55:12.838Z,15.75
2023-02-13T20:57:39.835Z,16.45
2023-02-13T21:00:07.290Z,15.35
2023-02-13T21:02:34.136Z,17.33
2023-02-13T21:05:01.074Z,15.18
2023-02-13T21:07:29.063Z,15.55
2023-02-13T21:09:57.112Z,14.20
2023-02-13T21:12:23.960Z,16.20
2023-02-13T21:14:50.857Z,14.48
2023-02-13T21:17:17.719Z,14.90
2023-02-13T21:19:44.721Z,13.80
2023-02-13T21:22:12.300Z,14.13
2023-02-13T21:24:40.634Z,16.58
2023-02-13T21:27:07.825Z,15.85
2023-02-13T21:29:35.877Z,16.67
2023-02-13T21:32:02.731Z,17.17
2023-02-13T21:34:29.738Z,18.50
2023-02-13T21:36:56.501Z,15.55
2023-02-13T21:39:23.286Z,12.88
2023-02-13T21:41:50.306Z,16.40
2023-02-13T21:44:17.066Z,18.00
2023-02-13T21:46:44.469Z,15.73
2023-02-13T21:49:17.507Z,13.60
2023-02-13T21:51:44.456Z,15.85
2023-02-13T21:54:11.252Z,15.77
2023-02-13T21:56:39.363Z,13.88
2023-02-13T21:59:06.629Z,16.73
2023-02-13T22:01:37.281Z,17.08
2023-02-13T22:04:06.078Z,15.48
2023-02-13T22:06:34.238Z,15.43
2023-02-13T22:09:21.368Z,14.88
2023-02-13T22:11:49.906Z,14.70
2023-02-13T22:14:18.075Z,15.18
2023-02-13T22:16:45.439Z,15.80
2023-02-13T22:19:16.138Z,15.95
2023-02-13T22:21:42.938Z,15.80
2023-02-13T22:24:09.767Z,14.18
2023-02-13T22:26:37.953Z,16.13
2023-02-13T22:29:06.401Z,14.70
2023-02-13T22:31:33.295Z,14.52
2023-02-13T22:34:05.059Z,15.88
2023-02-13T22:36:39.632Z,17.08
2023-02-13T22:39:07.332Z,16.55
2023-02-13T22:41:34.084Z,20.00
2023-02-13T22:44:00.843Z,14.75
2023-02-13T22:46:29.634Z,16.13
2023-02-13T22:48:56.699Z,16.03
2023-02-13T22:51:25.315Z,16.92
2023-02-13T22:53:56.335Z,16.20
2023-02-13T22:56:25.182Z,15.57
2023-02-13T22:58:51.919Z,15.03
2023-02-13T23:01:21.167Z,14.68
2023-02-13T23:03:47.897Z,14.60
2023-02-13T23:06:14.883Z,13.80
2023-02-13T23:08:41.874Z,13.90
2023-02-13T23:11:29.019Z,17.40
2023-02-13T23:13:55.981Z,16.67
2023-02-13T23:16:22.826Z,15.15
2023-02-13T23:18:54.043Z,13.93
2023-02-13T23:21:21.169Z,17.40
2023-02-13T23:23:47.995Z,15.03
2023-02-13T23:26:15.016Z,13.73
2023-02-13T23:28:41.869Z,14.77
2023-02-13T23:31:08.966Z,15.02
2023-02-13T23:33:35.857Z,15.63
2023-02-13T23:36:02.651Z,16.00
2023-02-13T23:38:29.575Z,14.93
2023-02-13T23:40:56.412Z,15.73
2023-02-13T23:43:23.486Z,16.65
2023-02-13T23:45:50.301Z,16.97
2023-02-13T23:48:17.523Z,15.23
2023-02-13T23:50:44.330Z,16.67
2023-02-13T23:53:13.475Z,15.10
2023-02-13T23:55:40.198Z,15.35
2023-02-13T23:58:06.950Z,15.18
